createdAt,value
2022-11-26T00:02:26.002Z,3.96
2022-11-26T00:06:34.940Z,3.96
2022-11-26T00:10:39.499Z,3.97
2022-11-26T00:14:42.490Z,3.99
2022-11-26T00:18:45.518Z,4.04
2022-11-26T00:22:52.616Z,4.04
2022-11-26T00:26:59.943Z,4.06
2022-11-26T00:31:05.753Z,4.08
2022-11-26T00:35:09.458Z,4.09
2022-11-26T00:39:17.030Z,4.11
2022-11-26T00:43:21.765Z,4.11
2022-11-26T00:47:24.811Z,4.08
2022-11-26T00:51:29.240Z,4.10
2022-11-26T00:55:35.642Z,4.11
2022-11-26T00:59:39.965Z,4.13
2022-11-26T01:03:44.065Z,4.15
2022-11-26T01:07:47.696Z,4.22
2022-11-26T01:11:54.297Z,4.27
2022-11-26T01:16:01.077Z,4.32
2022-11-26T01:20:05.629Z,4.33
2022-11-26T01:24:08.901Z,4.38
2022-11-26T01:28:14.184Z,4.43
2022-11-26T01:32:18.546Z,4.52
2022-11-26T01:36:27.536Z,4.62
2022-11-26T01:40:39.967Z,4.69
2022-11-26T01:44:44.032Z,4.79
2022-11-26T01:48:49.836Z,4.83
2022-11-26T01:52:53.854Z,4.91
2022-11-26T01:57:00.545Z,4.96
2022-11-26T02:01:03.580Z,5.02
2022-11-26T02:05:13.618Z,5.04
2022-11-26T02:09:17.319Z,5.08
2022-11-26T02:13:20.695Z,5.12
2022-11-26T02:17:28.596Z,5.15
2022-11-26T02:21:37.212Z,5.20
2022-11-26T02:26:18.200Z,5.25
2022-11-26T02:30:22.593Z,5.28
2022-11-26T02:34:37.006Z,5.29
2022-11-26T02:38:40.836Z,5.31
2022-11-26T02:42:43.841Z,5.33
2022-11-26T02:46:50.950Z,5.36
2022-11-26T02:50:58.027Z,5.40
2022-11-26T02:55:03.185Z,5.45
2022-11-26T02:59:06.588Z,5.48
2022-11-26T03:03:22.919Z,5.51
2022-11-26T03:07:27.503Z,5.54
2022-11-26T03:11:31.001Z,5.61
2022-11-26T03:15:34.041Z,5.62
2022-11-26T03:19:38.546Z,5.64
2022-11-26T03:23:41.719Z,5.65
2022-11-26T03:27:44.869Z,5.65
2022-11-26T03:31:48.089Z,5.67
2022-11-26T03:35:52.488Z,5.69
2022-11-26T03:39:55.541Z,5.68
2022-11-26T03:43:58.507Z,5.68
2022-11-26T03:48:01.775Z,5.66
2022-11-26T03:52:06.711Z,5.65
2022-11-26T03:56:09.708Z,5.64
2022-11-26T04:00:14.615Z,5.66
2022-11-26T04:04:17.907Z,5.67
2022-11-26T04:08:22.904Z,5.69
2022-11-26T04:12:27.295Z,5.70
2022-11-26T04:16:30.407Z,5.72
2022-11-26T04:20:33.424Z,5.71
2022-11-26T04:24:38.107Z,5.71
2022-11-26T04:28:41.472Z,5.71
2022-11-26T04:32:44.472Z,5.73
2022-11-26T04:36:47.637Z,5.71
2022-11-26T04:40:52.055Z,5.72
2022-11-26T04:44:55.069Z,5.74
2022-11-26T04:48:58.079Z,5.75
2022-11-26T04:53:01.347Z,5.79
2022-11-26T04:57:05.927Z,5.82
2022-11-26T05:01:09.267Z,5.83
2022-11-26T05:05:12.718Z,5.87
2022-11-26T05:09:15.884Z,5.89
2022-11-26T05:13:20.239Z,5.89
2022-11-26T05:17:23.229Z,5.90
2022-11-26T05:21:26.211Z,5.91
2022-11-26T05:25:29.230Z,5.91
2022-11-26T05:29:33.665Z,5.94
2022-11-26T05:33:36.656Z,5.96
2022-11-26T05:37:39.703Z,5.98
2022-11-26T05:41:42.928Z,5.99
2022-11-26T05:45:47.273Z,5.99
2022-11-26T05:49:50.303Z,6.02
2022-11-26T05:53:53.160Z,6.04
2022-11-26T05:57:56.074Z,6.07
2022-11-26T06:02:00.545Z,6.07
2022-11-26T06:06:03.963Z,6.10
2022-11-26T06:10:08.430Z,6.12
2022-11-26T06:14:11.490Z,6.14
2022-11-26T06:18:16.332Z,6.14
2022-11-26T06:22:19.504Z,6.17
2022-11-26T06:26:22.421Z,6.22
2022-11-26T06:30:25.340Z,6.22
2022-11-26T06:34:30.073Z,6.23
2022-11-26T06:38:33.456Z,6.29
2022-11-26T06:42:36.534Z,6.28
2022-11-26T06:46:39.433Z,6.30
2022-11-26T06:50:43.692Z,6.32
2022-11-26T06:54:46.539Z,6.36
2022-11-26T06:58:50.696Z,6.37
2022-11-26T07:02:53.874Z,6.41
2022-11-26T07:06:58.276Z,6.39
2022-11-26T07:11:03.616Z,6.41
2022-11-26T07:15:07.395Z,6.43
2022-11-26T07:19:14.352Z,6.44
2022-11-26T07:23:18.721Z,6.47
2022-11-26T07:27:22.023Z,6.50
2022-11-26T07:31:25.375Z,6.54
2022-11-26T07:35:28.564Z,6.58
2022-11-26T07:39:33.050Z,6.62
2022-11-26T07:43:36.439Z,6.64
2022-11-26T07:47:39.360Z,6.67
2022-11-26T07:51:42.565Z,6.70
2022-11-26T07:55:46.841Z,6.71
2022-11-26T07:59:49.951Z,6.73
2022-11-26T08:03:53.194Z,6.76
2022-11-26T08:07:56.236Z,6.78
2022-11-26T08:12:00.751Z,6.81
2022-11-26T08:16:03.973Z,6.84
2022-11-26T08:20:08.300Z,6.86
2022-11-26T08:24:14.839Z,6.85
2022-11-26T08:28:19.150Z,6.90
2022-11-26T08:32:25.301Z,6.91
2022-11-26T08:36:31.659Z,6.94
2022-11-26T08:40:34.716Z,6.95
2022-11-26T08:44:39.567Z,6.97
2022-11-26T08:48:42.958Z,7.01
2022-11-26T08:52:46.090Z,7.08
2022-11-26T08:56:49.038Z,7.09
2022-11-26T09:00:53.339Z,7.13
2022-11-26T09:04:56.331Z,7.17
2022-11-26T09:09:18.014Z,7.21
2022-11-26T09:13:22.586Z,7.22
2022-11-26T09:17:26.860Z,7.24
2022-11-26T09:21:29.979Z,7.28
2022-11-26T09:25:33.068Z,7.32
2022-11-26T09:29:36.059Z,7.36
2022-11-26T09:33:40.461Z,7.42
2022-11-26T09:37:46.098Z,7.46
2022-11-26T09:41:58.041Z,7.52
2022-11-26T09:46:02.074Z,7.53
2022-11-26T09:50:17.787Z,7.56
2022-11-26T09:54:23.541Z,7.57
2022-11-26T09:58:31.319Z,7.57
2022-11-26T10:02:35.088Z,7.60
2022-11-26T10:06:51.407Z,7.62
2022-11-26T10:11:03.778Z,7.66
2022-11-26T10:15:17.625Z,7.74
2022-11-26T10:19:27.914Z,7.77
2022-11-26T10:23:39.025Z,7.90
2022-11-26T10:27:42.383Z,7.97
2022-11-26T10:31:47.742Z,8.01
2022-11-26T10:35:51.645Z,8.08
2022-11-26T10:40:02.005Z,8.14
2022-11-26T10:44:30.225Z,8.16
2022-11-26T10:48:34.661Z,8.18
2022-11-26T10:52:39.664Z,8.22
2022-11-26T10:56:47.557Z,8.25
2022-11-26T11:00:57.867Z,8.25
2022-11-26T11:05:04.105Z,8.28
2022-11-26T11:09:25.746Z,8.30
2022-11-26T11:13:42.364Z,8.31
2022-11-26T11:17:46.484Z,8.31
2022-11-26T11:21:49.678Z,8.31
2022-11-26T11:26:01.406Z,8.35
2022-11-26T11:30:07.097Z,8.31
2022-11-26T11:34:14.818Z,8.33
2022-11-26T11:38:23.809Z,8.36
2022-11-26T11:42:29.472Z,8.38
2022-11-26T11:46:55.861Z,8.45
2022-11-26T11:51:08.232Z,8.45
2022-11-26T11:55:22.889Z,8.50
2022-11-26T11:59:58.410Z,8.55
2022-11-26T12:04:20.876Z,8.56
2022-11-26T12:08:37.370Z,8.59
2022-11-26T12:12:44.530Z,8.63
2022-11-26T12:16:53.735Z,8.62
2022-11-26T12:21:02.938Z,8.63
2022-11-26T12:25:15.580Z,8.64
2022-11-26T12:29:28.457Z,8.65
2022-11-26T12:33:35.063Z,8.71
2022-11-26T12:37:42.600Z,8.75
2022-11-26T12:41:51.488Z,8.81
2022-11-26T12:45:59.547Z,8.81
2022-11-26T12:50:16.530Z,8.81
2022-11-26T12:54:25.916Z,8.76
2022-11-26T12:58:38.624Z,8.75
2022-11-26T13:02:44.519Z,8.74
2022-11-26T13:07:03.952Z,8.77
2022-11-26T13:11:21.646Z,8.74
2022-11-26T13:15:33.307Z,8.76
2022-11-26T13:19:41.958Z,8.79
2022-11-26T13:23:57.771Z,8.98
2022-11-26T13:28:15.255Z,9.08
2022-11-26T13:32:43.687Z,9.08
2022-11-26T13:37:14.198Z,9.06
2022-11-26T13:41:30.223Z,9.05
2022-11-26T13:46:05.726Z,9.02
2022-11-26T13:50:14.484Z,9.02
2022-11-26T13:54:22.989Z,9.00
2022-11-26T13:58:31.572Z,8.99
2022-11-26T14:02:44.328Z,8.95
2022-11-26T14:07:21.991Z,8.93
2022-11-26T14:11:56.871Z,8.95
2022-11-26T14:16:02.479Z,8.93
2022-11-26T14:20:10.083Z,8.95
2022-11-26T14:24:33.073Z,8.95
2022-11-26T14:28:36.096Z,8.99
2022-11-26T14:32:42.829Z,9.00
2022-11-26T14:36:56.093Z,8.97
2022-11-26T14:41:00.426Z,8.95
2022-11-26T14:45:05.620Z,8.91
2022-11-26T14:49:21.272Z,8.86
2022-11-26T14:53:29.333Z,8.84
2022-11-26T14:57:42.233Z,8.82
2022-11-26T15:01:46.913Z,8.76
2022-11-26T15:05:49.966Z,8.73
2022-11-26T15:10:03.806Z,8.70
2022-11-26T15:14:06.848Z,8.64
2022-11-26T15:18:16.248Z,8.61
2022-11-26T15:22:23.124Z,8.58
2022-11-26T15:26:33.199Z,8.55
2022-11-26T15:30:38.160Z,8.47
2022-11-26T15:34:42.204Z,8.45
2022-11-26T15:39:03.061Z,8.40
2022-11-26T15:43:07.640Z,8.32
2022-11-26T15:47:20.614Z,8.29
2022-11-26T15:51:33.779Z,8.24
2022-11-26T15:55:38.962Z,8.22
2022-11-26T15:59:48.980Z,8.18
2022-11-26T16:03:53.762Z,8.17
2022-11-26T16:07:58.198Z,8.12
2022-11-26T16:12:02.302Z,8.10
2022-11-26T16:16:14.640Z,8.06
2022-11-26T16:20:20.244Z,8.05
2022-11-26T16:24:29.508Z,7.99
2022-11-26T16:28:32.565Z,7.95
2022-11-26T16:32:36.928Z,7.93
2022-11-26T16:36:44.190Z,7.91
2022-11-26T16:40:47.216Z,7.89
2022-11-26T16:44:50.822Z,7.89
2022-11-26T16:48:55.386Z,7.83
2022-11-26T16:52:58.391Z,7.80
2022-11-26T16:57:02.075Z,7.78
2022-11-26T17:01:05.081Z,7.76
2022-11-26T17:05:09.916Z,7.72
2022-11-26T17:09:18.725Z,7.67
2022-11-26T17:13:21.886Z,7.62
2022-11-26T17:17:29.315Z,7.59
2022-11-26T17:21:33.887Z,7.53
2022-11-26T17:25:36.872Z,7.47
2022-11-26T17:29:42.795Z,7.47
2022-11-26T17:33:46.165Z,7.45
2022-11-26T17:37:50.788Z,7.39
2022-11-26T17:41:54.185Z,7.36
2022-11-26T17:45:59.321Z,7.34
2022-11-26T17:50:02.375Z,7.30
2022-11-26T17:54:07.060Z,7.27
2022-11-26T17:58:12.386Z,7.20
2022-11-26T18:02:15.686Z,7.18
2022-11-26T18:06:21.378Z,7.15
2022-11-26T18:10:25.907Z,7.13
2022-11-26T18:14:29.219Z,7.10
2022-11-26T18:18:32.219Z,7.08
2022-11-26T18:22:35.179Z,7.07
2022-11-26T18:26:41.175Z,7.08
2022-11-26T18:30:44.676Z,7.08
2022-11-26T18:34:50.070Z,7.05
2022-11-26T18:38:53.330Z,7.05
2022-11-26T18:42:57.894Z,7.04
2022-11-26T18:47:04.344Z,7.02
2022-11-26T18:51:10.432Z,6.97
2022-11-26T18:55:14.908Z,6.95
2022-11-26T18:59:19.267Z,6.95
2022-11-26T19:03:22.305Z,6.92
2022-11-26T19:07:25.354Z,6.94
2022-11-26T19:11:29.263Z,6.96
2022-11-26T19:15:34.547Z,6.94
2022-11-26T19:19:39.416Z,6.95
2022-11-26T19:23:42.912Z,6.96
2022-11-26T19:27:45.880Z,6.95
2022-11-26T19:31:50.469Z,6.93
2022-11-26T19:35:53.470Z,6.90
2022-11-26T19:39:56.783Z,6.90
2022-11-26T19:44:01.410Z,6.87
2022-11-26T19:48:05.958Z,6.85
2022-11-26T19:52:08.945Z,6.81
2022-11-26T19:56:16.348Z,6.78
2022-11-26T20:00:19.734Z,6.74
2022-11-26T20:04:27.460Z,6.71
2022-11-26T20:08:30.678Z,6.70
2022-11-26T20:12:33.731Z,6.69
2022-11-26T20:16:37.279Z,6.62
2022-11-26T20:20:41.899Z,6.58
2022-11-26T20:24:44.843Z,6.51
2022-11-26T20:28:47.830Z,6.49
2022-11-26T20:32:50.852Z,6.47
2022-11-26T20:36:55.295Z,6.46
2022-11-26T20:40:58.519Z,6.47
2022-11-26T20:45:01.521Z,6.52
2022-11-26T20:49:05.859Z,6.53
2022-11-26T20:53:10.219Z,6.56
2022-11-26T20:57:13.217Z,6.55
2022-11-26T21:01:17.867Z,6.56
2022-11-26T21:05:21.464Z,6.55
2022-11-26T21:09:25.952Z,6.55
2022-11-26T21:13:28.964Z,6.53
2022-11-26T21:17:32.358Z,6.51
2022-11-26T21:21:35.521Z,6.53
2022-11-26T21:25:41.675Z,6.54
2022-11-26T21:29:46.186Z,6.54
2022-11-26T21:33:55.183Z,6.56
2022-11-26T21:37:59.262Z,6.51
2022-11-26T21:42:03.603Z,6.51
2022-11-26T21:46:08.563Z,6.52
2022-11-26T21:50:13.047Z,6.50
2022-11-26T21:54:16.447Z,6.50
2022-11-26T21:58:21.341Z,6.52
2022-11-26T22:02:24.587Z,6.50
2022-11-26T22:06:28.027Z,6.50
2022-11-26T22:10:35.945Z,6.49
2022-11-26T22:14:40.730Z,6.46
2022-11-26T22:18:45.387Z,6.43
2022-11-26T22:22:48.540Z,6.42
2022-11-26T22:26:52.513Z,6.42
2022-11-26T22:30:57.158Z,6.41
2022-11-26T22:35:00.119Z,6.39
2022-11-26T22:39:04.760Z,6.32
2022-11-26T22:43:07.722Z,6.30
2022-11-26T22:47:12.276Z,6.28
2022-11-26T22:51:15.614Z,6.28
2022-11-26T22:55:18.775Z,6.25
2022-11-26T22:59:21.751Z,6.20
2022-11-26T23:03:27.857Z,6.15
2022-11-26T23:07:31.297Z,6.15
2022-11-26T23:11:36.458Z,6.16
2022-11-26T23:15:44.500Z,6.14
2022-11-26T23:19:49.385Z,6.11
2022-11-26T23:23:53.178Z,6.08
2022-11-26T23:27:56.333Z,6.08
2022-11-26T23:31:59.380Z,6.04
2022-11-26T23:36:04.428Z,6.03
2022-11-26T23:40:09.214Z,6.02
2022-11-26T23:44:12.205Z,6.01
2022-11-26T23:48:15.204Z,5.99
2022-11-26T23:52:19.580Z,6.00
2022-11-26T23:56:25.042Z,6.00
